Time;durP1;ratioP1;P1;durP2;ratioP2;P2;SDS_P1;SDS_P2;PMS_P1;PMS_P2;Temp;Humidity;BMP_temperature;BMP_pressure;BME280_temperature;BME280_humidity;BME280_pressure;Samples;Min_cycle;Max_cycle;Signal;HPM_P1;HPM_P2
2023/01/17 00:01:07;;;;;;;39.70;25.70;;;;;;;7.25;100.00;100135.41;2097278;28;20267;-63
2023/01/17 00:02:08;;;;;;;36.35;25.17;;;;;;;7.27;100.00;100137.72;2096869;28;20181;-63
2023/01/17 00:03:08;;;;;;;41.00;25.73;;;;;;;7.22;100.00;100141.75;2090057;28;20689;-63
2023/01/17 00:10:50;;;;;;;40.22;25.15;;;;;;;7.34;100.00;100138.38;2092039;28;20204;-61
2023/01/17 00:11:50;;;;;;;38.37;24.80;;;;;;;7.36;100.00;100130.47;2091546;28;20199;-62
2023/01/17 00:12:56;;;;;;;42.10;25.80;;;;;;;7.36;100.00;100133.22;2094162;28;20711;-62
2023/01/17 00:13:57;;;;;;;44.67;26.58;;;;;;;7.31;100.00;100135.69;2094689;28;20274;-62
2023/01/17 00:14:58;;;;;;;39.70;26.13;;;;;;;7.24;100.00;100124.81;2096849;28;20187;-62
2023/01/17 00:15:59;;;;;;;40.20;25.05;;;;;;;7.05;100.00;100098.78;2089323;28;20216;-62
2023/01/17 00:17:00;;;;;;;42.67;26.27;;;;;;;7.27;100.00;100133.00;2089329;28;20200;-62
2023/01/17 00:18:01;;;;;;;42.88;26.08;;;;;;;7.22;100.00;100127.22;2095342;28;20321;-62
2023/01/17 00:26:02;;;;;;;39.00;25.20;;;;;;;7.16;100.00;100110.38;2092692;28;20195;-59
2023/01/17 01:33:38;;;;;;;35.83;22.52;;;;;;;7.02;100.00;100096.09;2088473;28;20755;-61
2023/01/17 01:34:38;;;;;;;34.07;21.97;;;;;;;7.02;100.00;100098.84;2088878;28;20570;-60
2023/01/17 01:35:40;;;;;;;34.07;22.93;;;;;;;6.66;100.00;100046.34;2093758;28;20655;-61
2023/01/17 01:36:41;;;;;;;34.42;23.17;;;;;;;7.03;100.00;100094.88;2088763;28;20186;-61
2023/01/17 01:37:41;;;;;;;36.03;22.93;;;;;;;7.05;100.00;100084.22;2088691;28;20187;-61
2023/01/17 01:38:42;;;;;;;38.33;24.00;;;;;;;7.06;100.00;100086.56;2089092;28;20200;-61
2023/01/17 01:39:42;;;;;;;39.90;24.23;;;;;;;7.04;100.00;100085.41;2093953;28;20227;-61
2023/01/17 01:40:48;;;;;;;34.73;22.83;;;;;;;6.92;100.00;100089.53;2090246;28;20202;-60
2023/01/17 01:41:49;;;;;;;33.00;22.67;;;;;;;6.86;100.00;100094.00;2087539;28;20234;-60
2023/01/17 01:42:58;;;;;;;30.47;22.33;;;;;;;6.48;100.00;100040.38;2088840;28;20196;-61
2023/01/17 01:43:59;;;;;;;35.92;22.52;;;;;;;6.73;100.00;100092.25;2088217;28;20653;-61
2023/01/17 01:44:59;;;;;;;34.73;22.30;;;;;;;6.47;100.00;100060.06;2096129;28;20200;-61
2023/01/17 01:46:00;;;;;;;30.70;22.37;;;;;;;6.72;100.00;100094.22;2096562;28;20176;-61
2023/01/17 01:47:01;;;;;;;34.63;21.67;;;;;;;6.67;100.00;100096.69;2096197;28;20673;-60
2023/01/17 01:48:22;;;;;;;33.47;22.15;;;;;;;6.67;100.00;100099.44;2096972;28;20250;-61
2023/01/17 01:49:27;;;;;;;37.10;24.70;;;;;;;6.74;100.00;100099.31;2095181;28;20185;-61
2023/01/17 01:50:29;;;;;;;40.65;25.73;;;;;;;6.75;100.00;100101.66;2096127;28;20191;-61
2023/01/17 01:51:58;;;;;;;40.22;25.50;;;;;;;6.76;100.00;100096.94;2087862;28;20207;-61
2023/01/17 01:53:02;;;;;;;40.85;25.70;;;;;;;6.76;100.00;100089.44;2082401;28;20204;-61
2023/01/17 01:54:17;;;;;;;37.80;24.65;;;;;;;6.78;100.00;100091.78;2095882;28;20186;-61
2023/01/17 01:55:23;;;;;;;39.60;24.98;;;;;;;6.80;100.00;100086.63;2096407;28;20175;-60
2023/01/17 01:56:23;;;;;;;35.20;23.98;;;;;;;6.80;100.00;100081.91;2093399;28;20202;-61
2023/01/17 01:57:28;;;;;;;37.17;25.00;;;;;;;6.82;100.00;100076.75;2088432;28;20194;-61
2023/01/17 01:58:33;;;;;;;36.83;25.08;;;;;;;6.82;100.00;100079.50;2096233;28;20469;-60
2023/01/17 01:59:43;;;;;;;34.88;24.35;;;;;;;6.82;100.00;100071.22;2088300;28;20246;-61
2023/01/17 02:00:43;;;;;;;37.75;24.70;;;;;;;6.83;100.00;100072.78;2095619;28;20167;-61
2023/01/17 02:01:46;;;;;;;37.77;24.27;;;;;;;6.85;100.00;100072.38;2095811;28;20204;-61
2023/01/17 02:02:48;;;;;;;38.63;24.27;;;;;;;6.85;100.00;100056.63;2096192;28;20775;-61
2023/01/17 02:03:49;;;;;;;37.50;26.45;;;;;;;6.31;100.00;99964.38;2089902;28;20260;-60
2023/01/17 02:04:50;;;;;;;38.47;25.17;;;;;;;6.85;100.00;100051.13;2088543;28;20192;-61
2023/01/17 02:05:51;;;;;;;37.45;25.35;;;;;;;6.89;100.00;100062.88;2092830;28;20672;-61
2023/01/17 02:07:06;;;;;;;39.27;25.83;;;;;;;6.97;100.00;100066.28;2090431;28;20223;-61
2023/01/17 02:08:09;;;;;;;39.70;26.33;;;;;;;6.50;100.00;100002.19;2092934;28;20216;-61
2023/01/17 02:09:11;;;;;;;39.55;27.23;;;;;;;6.92;100.00;100058.50;2088263;28;20266;-61
2023/01/17 02:10:11;;;;;;;38.60;26.88;;;;;;;6.77;100.00;100029.66;2089174;28;20255;-61
2023/01/17 02:11:12;;;;;;;37.73;26.23;;;;;;;7.01;100.00;100059.47;2087823;28;20175;-61
2023/01/17 02:12:13;;;;;;;40.27;27.93;;;;;;;7.01;100.00;100050.44;2095644;28;20262;-61
2023/01/17 02:13:17;;;;;;;38.33;26.70;;;;;;;6.98;100.00;100054.03;2089016;28;20191;-60
2023/01/17 02:14:20;;;;;;;38.78;26.88;;;;;;;6.99;100.00;100061.91;2095090;28;20565;-61
2023/01/17 02:15:29;;;;;;;41.78;28.13;;;;;;;6.99;100.00;100056.38;2093937;28;20707;-61
2023/01/17 02:16:42;;;;;;;41.03;27.38;;;;;;;7.04;100.00;100050.38;2090045;28;20271;-62
2023/01/17 02:17:59;;;;;;;40.92;27.15;;;;;;;7.06;100.00;100047.97;2094573;28;20239;-58
2023/01/17 02:19:17;;;;;;;37.90;25.40;;;;;;;7.03;100.00;100067.34;2088443;28;20191;-60
2023/01/17 02:21:02;;;;;;;36.40;25.13;;;;;;;7.15;100.00;100067.50;2090766;28;20223;-61
2023/01/17 02:22:11;;;;;;;39.20;25.92;;;;;;;7.18;100.00;100074.13;2089219;28;20215;-61
2023/01/17 02:23:37;;;;;;;39.90;26.27;;;;;;;7.12;100.00;100104.16;2092376;28;20267;-60
2023/01/17 02:24:52;;;;;;;37.28;26.52;;;;;;;7.01;100.00;100070.50;2088356;28;20199;-60
2023/01/17 02:26:30;;;;;;;36.65;26.38;;;;;;;6.97;100.00;100071.78;2095665;28;20645;-60
2023/01/17 02:27:52;;;;;;;38.63;25.85;;;;;;;6.94;100.00;100069.84;2096128;28;20187;-60
2023/01/17 02:28:53;;;;;;;39.40;26.92;;;;;;;6.95;100.00;100074.16;2096473;28;20198;-60
2023/01/17 02:30:11;;;;;;;39.23;28.33;;;;;;;6.98;100.00;100071.34;2092473;28;20192;-60
2023/01/17 02:31:31;;;;;;;40.42;28.45;;;;;;;6.95;100.00;100066.69;2087405;28;20223;-60
2023/01/17 02:32:48;;;;;;;39.75;28.25;;;;;;;6.90;100.00;100069.13;2092653;28;20195;-60
2023/01/17 02:34:27;;;;;;;41.72;29.05;;;;;;;6.93;100.00;100060.03;2089936;28;20251;-60
2023/01/17 02:35:30;;;;;;;41.95;28.10;;;;;;;6.90;100.00;100075.44;2099542;28;20195;-61
2023/01/17 02:36:38;;;;;;;41.08;28.40;;;;;;;7.00;100.00;100076.44;2105827;28;20182;-60
2023/01/17 02:38:01;;;;;;;38.15;27.65;;;;;;;7.05;100.00;100067.69;2089106;28;20184;-61
2023/01/17 02:39:12;;;;;;;36.88;27.23;;;;;;;6.99;100.00;100058.34;2095496;28;20170;-60
2023/01/17 02:40:21;;;;;;;38.33;27.95;;;;;;;7.09;100.00;100066.44;2099185;28;20167;-60
2023/01/17 02:41:28;;;;;;;37.92;28.00;;;;;;;7.08;100.00;100086.88;2105712;28;20171;-61
2023/01/17 02:42:39;;;;;;;43.40;28.58;;;;;;;7.08;100.00;100078.63;2096859;28;20865;-60
2023/01/17 02:43:40;;;;;;;35.30;26.98;;;;;;;6.99;100.00;100067.41;2097560;28;20281;-61
2023/01/17 02:44:41;;;;;;;41.72;28.85;;;;;;;6.15;100.00;99953.25;2106821;28;20226;-60
2023/01/17 02:45:42;;;;;;;42.25;27.63;;;;;;;6.90;100.00;100071.88;2105769;28;20190;-61
2023/01/17 02:47:00;;;;;;;39.80;27.77;;;;;;;6.98;100.00;100073.31;2098744;28;20194;-61
2023/01/17 02:48:01;;;;;;;38.20;27.33;;;;;;;6.87;100.00;100053.47;2102057;28;20185;-60
2023/01/17 02:49:01;;;;;;;37.17;28.13;;;;;;;6.98;100.00;100078.84;2098497;28;20203;-60
2023/01/17 02:50:07;;;;;;;38.20;28.63;;;;;;;6.34;100.00;99973.75;2097857;28;20199;-60
2023/01/17 02:51:42;;;;;;;41.55;29.33;;;;;;;6.94;100.00;100083.63;2098601;28;20283;-61
2023/01/17 02:53:16;;;;;;;39.53;27.88;;;;;;;6.96;100.00;100083.97;2103918;28;20465;-61
2023/01/17 02:54:41;;;;;;;40.05;27.35;;;;;;;7.02;100.00;100082.31;2106148;28;20563;-60
2023/01/17 02:55:44;;;;;;;36.90;27.98;;;;;;;7.05;100.00;100075.94;2106217;28;20218;-60
2023/01/17 02:56:53;;;;;;;37.35;27.42;;;;;;;7.05;100.00;100082.25;2097106;28;20681;-60
2023/01/17 02:58:14;;;;;;;37.90;28.08;;;;;;;7.05;100.00;100073.97;2097375;28;20192;-60
2023/01/17 02:59:27;;;;;;;39.03;28.63;;;;;;;6.91;100.00;100062.41;2097978;28;20571;-60
2023/01/17 03:00:33;;;;;;;41.10;29.80;;;;;;;6.89;100.00;100067.59;2103821;28;20185;-60
2023/01/17 03:01:45;;;;;;;41.63;30.02;;;;;;;6.94;100.00;100069.84;2100692;28;20206;-60
2023/01/17 03:03:02;;;;;;;40.13;29.67;;;;;;;7.00;100.00;100063.44;2106859;28;20171;-60
2023/01/17 03:04:10;;;;;;;43.50;30.70;;;;;;;6.92;100.00;100053.75;2098079;28;20630;-60
2023/01/17 03:05:14;;;;;;;43.45;30.98;;;;;;;6.77;100.00;100038.66;2098581;28;20241;-60
2023/01/17 03:06:21;;;;;;;43.53;31.73;;;;;;;6.67;100.00;100042.38;2105414;28;20214;-61
2023/01/17 03:07:26;;;;;;;46.45;32.83;;;;;;;6.63;100.00;100040.91;2105457;28;20221;-60
2023/01/17 03:08:27;;;;;;;47.50;33.13;;;;;;;6.06;100.00;99952.25;2098097;28;20572;-60
2023/01/17 03:09:30;;;;;;;49.92;34.30;;;;;;;6.69;100.00;100044.72;2097555;28;20211;-61
2023/01/17 03:10:32;;;;;;;46.90;33.00;;;;;;;6.76;100.00;100050.13;2103137;28;20271;-60
2023/01/17 03:11:33;;;;;;;48.25;33.05;;;;;;;6.79;100.00;100041.00;2101104;28;20225;-59
2023/01/17 03:12:37;;;;;;;48.43;33.03;;;;;;;6.74;100.00;100047.78;2096981;28;20195;-60
2023/01/17 03:13:38;;;;;;;47.72;32.63;;;;;;;6.71;100.00;100036.84;2100636;28;20648;-61
2023/01/17 03:14:38;;;;;;;50.67;34.23;;;;;;;6.75;100.00;100041.06;2104621;28;20198;-60
2023/01/17 03:15:40;;;;;;;49.63;33.67;;;;;;;6.78;100.00;100042.22;2105192;28;20195;-61
2023/01/17 03:16:40;;;;;;;49.58;34.45;;;;;;;6.60;100.00;100022.47;2098559;28;20300;-60
2023/01/17 03:17:45;;;;;;;48.23;33.27;;;;;;;6.68;100.00;100052.22;2105573;28;20307;-60
2023/01/17 03:18:46;;;;;;;51.17;34.17;;;;;;;6.75;100.00;100057.59;2097590;28;20180;-61
2023/01/17 03:19:46;;;;;;;46.07;33.93;;;;;;;6.80;100.00;100048.06;2094683;28;20713;-60
2023/01/17 03:20:46;;;;;;;50.73;33.53;;;;;;;6.88;100.00;100053.03;2104050;28;20210;-61
2023/01/17 03:21:48;;;;;;;44.77;32.17;;;;;;;6.79;100.00;100063.03;2105185;28;20190;-60
2023/01/17 03:22:49;;;;;;;46.80;32.90;;;;;;;6.45;100.00;99986.16;2106338;28;20583;-60
2023/01/17 03:23:49;;;;;;;48.27;33.87;;;;;;;7.02;100.00;100057.53;2104174;28;20197;-61
2023/01/17 03:24:50;;;;;;;45.07;31.93;;;;;;;7.07;100.00;100060.53;2106448;28;20231;-60
2023/01/17 03:25:50;;;;;;;43.53;32.13;;;;;;;7.07;100.00;100057.78;2106141;28;20186;-60
2023/01/17 03:26:51;;;;;;;49.43;32.83;;;;;;;6.53;100.00;99978.53;2106514;28;20195;-60
2023/01/17 03:27:51;;;;;;;47.70;32.57;;;;;;;6.56;100.00;99978.47;2106284;28;20189;-60
2023/01/17 03:28:52;;;;;;;44.83;32.30;;;;;;;7.10;100.00;100056.97;2105662;28;20230;-60
2023/01/17 03:29:52;;;;;;;46.07;31.43;;;;;;;7.20;100.00;100061.50;2101610;28;20263;-61
2023/01/17 03:30:52;;;;;;;44.07;31.13;;;;;;;7.22;100.00;100064.59;2097732;28;20260;-60
2023/01/17 03:31:53;;;;;;;44.23;32.17;;;;;;;7.22;100.00;100059.09;2096707;28;20172;-61
2023/01/17 03:32:53;;;;;;;44.93;31.57;;;;;;;7.19;100.00;100053.66;2104766;28;20660;-61
2023/01/17 03:33:54;;;;;;;43.73;31.03;;;;;;;7.14;100.00;100043.13;2106165;28;20244;-60
2023/01/17 03:34:54;;;;;;;42.87;30.63;;;;;;;7.22;100.00;100058.31;2098611;28;20192;-61
2023/01/17 03:35:56;;;;;;;41.03;31.00;;;;;;;7.17;100.00;100062.31;2101334;28;20643;-60
2023/01/17 03:36:57;;;;;;;42.58;30.98;;;;;;;6.21;100.00;99924.06;2100375;28;20194;-60
2023/01/17 03:37:57;;;;;;;41.23;31.43;;;;;;;7.11;100.00;100052.22;2102364;28;20189;-60
2023/01/17 03:38:58;;;;;;;39.67;30.43;;;;;;;6.83;100.00;100012.19;2102974;28;20196;-60
2023/01/17 03:39:58;;;;;;;41.60;31.47;;;;;;;7.09;100.00;100055.41;2099621;28;20240;-60
2023/01/17 03:40:59;;;;;;;40.30;30.87;;;;;;;7.15;100.00;100064.75;2104540;28;20182;-61
2023/01/17 03:41:59;;;;;;;41.97;31.03;;;;;;;7.14;100.00;100067.91;2097581;28;20237;-60
2023/01/17 03:42:59;;;;;;;39.43;29.63;;;;;;;7.14;100.00;100065.16;2106010;28;20194;-60
2023/01/17 03:44:00;;;;;;;41.80;30.57;;;;;;;7.08;100.00;100064.09;2105547;28;20405;-61
2023/01/17 03:45:00;;;;;;;40.43;30.10;;;;;;;7.02;100.00;100060.28;2100344;28;20554;-60
2023/01/17 03:46:05;;;;;;;41.37;31.47;;;;;;;7.05;100.00;100059.41;2101605;28;20202;-61
2023/01/17 03:47:10;;;;;;;40.08;30.52;;;;;;;7.06;100.00;100059.00;2102001;28;20171;-60
2023/01/17 03:48:11;;;;;;;42.00;31.52;;;;;;;7.05;100.00;100059.41;2100742;28;20201;-61
2023/01/17 03:49:12;;;;;;;41.10;31.20;;;;;;;7.07;100.00;100054.28;2105671;28;20182;-61
2023/01/17 03:50:12;;;;;;;40.17;30.43;;;;;;;7.05;100.00;100049.19;2104881;28;20430;-60
2023/01/17 03:51:13;;;;;;;39.10;30.33;;;;;;;7.06;100.00;100047.19;2102134;28;20181;-60
2023/01/17 03:52:13;;;;;;;40.07;31.13;;;;;;;7.08;100.00;100056.59;2105031;28;20286;-60
2023/01/17 03:53:13;;;;;;;38.37;29.90;;;;;;;7.06;100.00;100056.25;2099066;28;20726;-61
2023/01/17 03:54:14;;;;;;;39.67;30.83;;;;;;;7.00;100.00;100051.63;2097258;28;20191;-60
2023/01/17 03:55:14;;;;;;;40.47;30.97;;;;;;;7.01;100.00;100042.97;2097912;28;20213;-60
2023/01/17 03:56:15;;;;;;;43.00;31.20;;;;;;;6.87;100.00;100042.44;2103481;28;20220;-61
2023/01/17 03:57:15;;;;;;;41.53;31.13;;;;;;;6.78;100.00;100048.50;2103752;28;20719;-60
2023/01/17 03:58:16;;;;;;;43.57;32.57;;;;;;;6.44;100.00;99992.06;2097542;28;20186;-60
2023/01/17 03:59:16;;;;;;;42.60;31.67;;;;;;;6.64;100.00;100015.72;2097566;28;20168;-61
2023/01/17 04:00:17;;;;;;;41.83;32.93;;;;;;;6.82;100.00;100043.69;2099534;28;20198;-61
2023/01/17 04:01:18;;;;;;;40.60;32.63;;;;;;;6.88;100.00;100053.03;2096031;28;20246;-61
2023/01/17 04:02:18;;;;;;;41.80;32.60;;;;;;;6.64;100.00;100015.72;2089841;28;20652;-61
2023/01/17 04:03:18;;;;;;;42.80;33.63;;;;;;;6.79;100.00;100049.25;2097983;28;20198;-60
2023/01/17 04:04:19;;;;;;;42.10;32.97;;;;;;;6.80;100.00;100053.56;2100537;28;20175;-60
2023/01/17 04:05:19;;;;;;;42.93;33.93;;;;;;;6.86;100.00;100058.19;2104107;28;20242;-60
2023/01/17 04:06:20;;;;;;;42.43;32.70;;;;;;;6.98;100.00;100063.06;2104769;28;20183;-60
2023/01/17 04:07:21;;;;;;;40.23;31.93;;;;;;;6.41;100.00;99965.41;2098084;28;20241;-61
2023/01/17 04:08:22;;;;;;;39.90;31.30;;;;;;;7.12;100.00;100065.56;2097898;28;20687;-61
2023/01/17 04:09:22;;;;;;;41.37;31.57;;;;;;;7.09;100.00;100060.91;2098915;28;20647;-60
2023/01/17 04:10:23;;;;;;;40.97;31.80;;;;;;;7.13;100.00;100056.09;2099822;28;20280;-61
2023/01/17 04:11:23;;;;;;;40.50;31.63;;;;;;;7.07;100.00;100051.53;2097660;28;20222;-60
2023/01/17 04:12:23;;;;;;;40.13;31.33;;;;;;;7.06;100.00;100061.75;2100188;28;20190;-61
2023/01/17 04:13:24;;;;;;;43.97;32.70;;;;;;;7.06;100.00;100064.50;2103478;28;20202;-60
2023/01/17 04:14:24;;;;;;;41.93;31.13;;;;;;;7.13;100.00;100066.34;2103493;28;20189;-60
2023/01/17 04:15:25;;;;;;;39.03;31.20;;;;;;;7.24;100.00;100080.72;2105743;28;20175;-60
2023/01/17 04:16:29;;;;;;;43.30;31.30;;;;;;;7.26;100.00;100067.28;2103848;28;20282;-61
2023/01/17 04:17:30;;;;;;;37.40;30.55;;;;;;;7.42;100.00;100078.38;2105506;28;20222;-60
2023/01/17 04:18:30;;;;;;;39.83;32.20;;;;;;;7.05;100.00;100018.09;2101921;28;20186;-60
2023/01/17 04:19:34;;;;;;;39.43;30.93;;;;;;;7.38;100.00;100064.66;2105131;28;20202;-61
2023/01/17 04:20:37;;;;;;;40.42;30.55;;;;;;;7.42;100.00;100062.63;2100377;28;20197;-60
2023/01/17 04:21:39;;;;;;;41.05;31.83;;;;;;;7.42;100.00;100070.09;2100538;28;20216;-61
2023/01/17 04:22:39;;;;;;;42.40;31.53;;;;;;;7.40;100.00;100070.56;2099143;28;20305;-61
2023/01/17 04:23:39;;;;;;;40.87;31.87;;;;;;;7.44;100.00;100068.47;2104902;28;20186;-60
2023/01/17 04:24:40;;;;;;;39.30;30.60;;;;;;;7.49;100.00;100076.25;2105838;28;20252;-60
2023/01/17 04:25:40;;;;;;;42.63;31.33;;;;;;;7.52;100.00;100077.38;2106016;28;20175;-61
2023/01/17 04:26:41;;;;;;;42.00;30.53;;;;;;;7.17;100.00;100011.97;2105821;28;20226;-60
2023/01/17 04:27:41;;;;;;;40.60;31.13;;;;;;;7.60;100.00;100076.84;2105062;28;20274;-60
2023/01/17 04:28:42;;;;;;;39.13;31.10;;;;;;;7.61;100.00;100070.13;2105894;28;20209;-61
2023/01/17 04:29:42;;;;;;;40.77;30.37;;;;;;;7.16;100.00;99997.41;2105207;28;20234;-60
2023/01/17 04:30:42;;;;;;;39.80;30.83;;;;;;;7.29;100.00;100012.06;2102174;28;20282;-61
2023/01/17 04:31:43;;;;;;;38.47;30.93;;;;;;;7.67;100.00;100062.91;2093501;28;20192;-61
2023/01/17 04:32:43;;;;;;;42.13;31.03;;;;;;;7.61;100.00;100064.59;2095068;28;20183;-60
2023/01/17 04:33:44;;;;;;;40.07;31.17;;;;;;;7.68;100.00;100064.44;2097179;28;20676;-60
2023/01/17 04:34:44;;;;;;;39.07;30.00;;;;;;;7.68;100.00;100063.69;2097539;28;20624;-60
2023/01/17 04:35:45;;;;;;;41.57;30.27;;;;;;;7.61;100.00;100058.31;2097345;28;20198;-61
2023/01/17 04:36:45;;;;;;;40.50;31.10;;;;;;;7.65;100.00;100070.03;2102339;28;20242;-60
2023/01/17 04:37:46;;;;;;;41.30;31.27;;;;;;;7.62;100.00;100063.41;2105042;28;20244;-60
2023/01/17 04:38:46;;;;;;;38.20;30.37;;;;;;;7.63;100.00;100058.66;2102980;28;20889;-61
2023/01/17 04:39:46;;;;;;;43.73;30.83;;;;;;;7.65;100.00;100053.50;2096920;28;20184;-61
2023/01/17 04:40:47;;;;;;;41.10;30.40;;;;;;;7.67;100.00;100064.88;2096217;28;20565;-61
2023/01/17 04:41:47;;;;;;;38.67;30.20;;;;;;;7.70;100.00;100062.03;2103757;28;20241;-61
2023/01/17 04:42:48;;;;;;;40.53;30.27;;;;;;;7.71;100.00;100060.84;2105884;28;20310;-60
2023/01/17 04:43:48;;;;;;;40.70;31.50;;;;;;;7.72;100.00;100065.16;2098725;28;20235;-60
2023/01/17 04:44:49;;;;;;;38.97;30.43;;;;;;;7.72;100.00;100062.41;2097452;28;20638;-61
2023/01/17 04:45:54;;;;;;;37.93;30.80;;;;;;;7.69;100.00;100062.47;2100752;28;20187;-61
2023/01/17 04:46:55;;;;;;;41.25;31.52;;;;;;;7.76;100.00;100065.06;2102061;28;20199;-60
2023/01/17 04:48:01;;;;;;;39.87;30.67;;;;;;;7.01;100.00;99948.50;2099497;28;20177;-60
2023/01/17 04:49:02;;;;;;;38.92;29.95;;;;;;;7.73;100.00;100057.66;2105305;28;20521;-60
2023/01/17 04:50:02;;;;;;;39.20;30.47;;;;;;;7.78;100.00;100070.94;2104856;28;20204;-60
2023/01/17 04:51:04;;;;;;;37.53;30.63;;;;;;;7.78;100.00;100063.44;2097653;28;20193;-60
2023/01/17 04:52:04;;;;;;;38.88;30.15;;;;;;;7.80;100.00;100066.53;2096354;28;20219;-60
2023/01/17 04:53:05;;;;;;;40.87;30.73;;;;;;;7.91;100.00;100066.31;2097575;28;20270;-61
2023/01/17 04:54:05;;;;;;;38.73;29.87;;;;;;;7.81;100.00;100045.25;2102743;28;20221;-60
2023/01/17 04:55:06;;;;;;;38.57;29.43;;;;;;;7.90;100.00;100062.78;2105304;28;20584;-60
2023/01/17 04:56:07;;;;;;;39.90;30.10;;;;;;;7.84;100.00;100064.50;2102728;28;20229;-60
2023/01/17 04:57:07;;;;;;;39.47;30.17;;;;;;;7.87;100.00;100063.66;2103348;28;20677;-61
2023/01/17 04:58:08;;;;;;;37.87;29.83;;;;;;;7.60;100.00;100021.69;2097006;28;20171;-60
2023/01/17 04:59:08;;;;;;;38.97;29.27;;;;;;;7.69;100.00;100035.66;2097841;28;20317;-60
2023/01/17 05:00:09;;;;;;;39.17;29.73;;;;;;;7.18;100.00;99970.19;2105884;28;20187;-60
2023/01/17 05:01:09;;;;;;;36.53;30.35;;;;;;;7.90;100.00;100084.84;2104347;28;20574;-61
2023/01/17 05:02:11;;;;;;;39.03;30.17;;;;;;;7.70;100.00;100072.31;2101127;28;20199;-64
2023/01/17 05:03:11;;;;;;;44.47;32.38;;;;;;;7.87;100.00;100088.47;2104917;28;20201;-64
2023/01/17 05:04:12;;;;;;;43.83;31.87;;;;;;;7.85;100.00;100079.06;2103605;28;20202;-64
2023/01/17 05:05:12;;;;;;;41.27;31.33;;;;;;;7.49;100.00;100034.91;2104662;28;20674;-67
2023/01/17 05:06:12;;;;;;;39.47;31.43;;;;;;;7.60;100.00;100056.75;2104711;28;20175;-64
2023/01/17 05:07:13;;;;;;;41.13;31.20;;;;;;;7.80;100.00;100077.56;2104002;28;20186;-64
2023/01/17 05:08:14;;;;;;;42.30;31.43;;;;;;;7.32;100.00;99993.91;2104576;28;20770;-61
2023/01/17 05:09:14;;;;;;;42.43;31.33;;;;;;;7.06;100.00;99948.00;2103238;28;20199;-61
2023/01/17 05:10:15;;;;;;;38.10;30.30;;;;;;;7.81;100.00;100051.56;2104614;28;20244;-60
2023/01/17 05:11:16;;;;;;;42.63;31.47;;;;;;;7.73;100.00;100039.13;2103768;28;20192;-64
2023/01/17 05:12:17;;;;;;;41.30;31.20;;;;;;;7.34;100.00;99975.75;2104230;28;20576;-60
2023/01/17 05:13:17;;;;;;;40.37;30.80;;;;;;;7.81;100.00;100048.03;2095359;28;20216;-58
2023/01/17 05:14:18;;;;;;;41.13;30.20;;;;;;;7.81;100.00;100054.31;2095355;28;20196;-58
2023/01/17 05:15:18;;;;;;;43.27;31.10;;;;;;;7.85;100.00;100048.72;2104775;28;20182;-60
2023/01/17 05:16:19;;;;;;;39.10;29.37;;;;;;;7.86;100.00;100051.06;2105134;28;20775;-64
2023/01/17 05:17:19;;;;;;;41.73;30.50;;;;;;;7.59;100.00;100013.84;2103812;28;20187;-62
2023/01/17 05:18:20;;;;;;;40.13;31.37;;;;;;;7.68;100.00;100025.09;2103692;28;20195;-61
2023/01/17 05:19:21;;;;;;;42.33;32.30;;;;;;;7.87;100.00;100040.78;2104280;28;20234;-62
2023/01/17 05:20:24;;;;;;;41.85;32.13;;;;;;;7.89;100.00;100047.44;2104900;28;20185;-62
2023/01/17 05:21:24;;;;;;;40.97;31.00;;;;;;;7.56;100.00;99993.41;2104671;28;20685;-62
2023/01/17 05:22:25;;;;;;;40.77;31.60;;;;;;;7.91;100.00;100056.06;2104007;28;20797;-63
2023/01/17 05:23:25;;;;;;;39.77;31.13;;;;;;;7.93;100.00;100053.66;2105193;28;20236;-63
2023/01/17 05:24:26;;;;;;;41.40;31.10;;;;;;;7.99;100.00;100051.94;2105115;28;20235;-64
2023/01/17 05:25:29;;;;;;;45.97;30.53;;;;;;;7.97;100.00;100053.56;2103895;28;20260;-61
2023/01/17 05:26:29;;;;;;;38.58;29.88;;;;;;;8.03;100.00;100057.38;2104106;28;20196;-61
2023/01/17 05:27:29;;;;;;;40.20;30.73;;;;;;;8.06;100.00;100064.81;2104495;28;20188;-60
2023/01/17 05:28:30;;;;;;;40.90;29.67;;;;;;;8.09;100.00;100067.47;2104663;28;20187;-60
2023/01/17 05:29:30;;;;;;;41.43;31.20;;;;;;;8.10;100.00;100062.75;2103087;28;20673;-61
2023/01/17 05:30:31;;;;;;;41.07;29.87;;;;;;;8.13;100.00;100061.88;2068658;28;21285;-60
2023/01/17 05:31:32;;;;;;;42.47;32.28;;;;;;;8.12;100.00;100093.44;2100902;28;20281;-61
2023/01/17 05:32:32;;;;;;;45.67;34.37;;;;;;;8.11;100.00;100056.78;2104025;28;20194;-63
2023/01/17 05:33:33;;;;;;;40.17;31.83;;;;;;;8.12;100.00;100074.13;2105764;28;20194;-62
2023/01/17 05:34:33;;;;;;;43.10;33.27;;;;;;;7.37;100.00;99952.88;2103872;28;20194;-65
2023/01/17 05:35:34;;;;;;;43.03;32.67;;;;;;;8.10;100.00;100065.50;2102655;28;20269;-62
2023/01/17 05:36:34;;;;;;;43.53;32.70;;;;;;;8.08;100.00;100068.69;2079245;28;20351;-61
2023/01/17 05:37:35;;;;;;;46.57;34.47;;;;;;;8.07;100.00;100078.19;2099072;28;20200;-62
2023/01/17 05:38:35;;;;;;;51.30;37.03;;;;;;;8.09;100.00;100072.25;2104106;28;20173;-61
2023/01/17 05:39:35;;;;;;;48.73;37.60;;;;;;;8.05;100.00;100071.53;2101054;28;20261;-64
2023/01/17 05:40:36;;;;;;;45.80;35.07;;;;;;;7.97;100.00;100079.19;2072139;28;20849;-64
2023/01/17 05:41:36;;;;;;;48.07;35.77;;;;;;;7.18;100.00;99967.44;2088811;28;20700;-65
2023/01/17 05:42:37;;;;;;;41.10;31.17;;;;;;;7.93;100.00;100084.00;2100834;28;20264;-65
2023/01/17 05:43:37;;;;;;;40.50;31.57;;;;;;;7.70;100.00;100051.00;2100332;28;20194;-65
2023/01/17 05:44:38;;;;;;;44.73;32.07;;;;;;;8.15;100.00;100128.47;2102449;28;20228;-65
2023/01/17 05:45:38;;;;;;;46.10;34.43;;;;;;;8.13;100.00;100126.13;2098891;28;20210;-65
2023/01/17 05:46:38;;;;;;;43.83;33.07;;;;;;;8.14;100.00;100126.91;2096711;28;20639;-65
2023/01/17 05:47:39;;;;;;;45.43;34.70;;;;;;;8.17;100.00;100129.59;2100596;28;20234;-65
2023/01/17 05:48:39;;;;;;;47.23;35.20;;;;;;;8.23;100.00;100129.91;2099086;28;20198;-65
2023/01/17 05:49:40;;;;;;;52.30;37.83;;;;;;;8.19;100.00;100140.97;2102464;28;20376;-64
2023/01/17 05:50:40;;;;;;;49.60;36.93;;;;;;;8.21;100.00;100124.03;2099853;28;20614;-65
2023/01/17 05:51:41;;;;;;;49.93;37.83;;;;;;;8.19;100.00;100118.13;2099233;28;20193;-65
2023/01/17 05:52:54;;;;;;;45.93;34.50;;;;;;;8.16;100.00;100122.50;2097662;28;20904;-64
2023/01/17 05:53:55;;;;;;;45.70;33.42;;;;;;;7.77;100.00;100061.91;2095396;28;20222;-65
2023/01/17 05:54:55;;;;;;;42.90;33.13;;;;;;;8.15;100.00;100120.19;2097501;28;20579;-65
2023/01/17 05:55:56;;;;;;;45.50;34.13;;;;;;;8.13;100.00;100120.63;2098448;28;20297;-65
2023/01/17 05:56:56;;;;;;;48.67;34.63;;;;;;;8.16;100.00;100119.00;2103386;28;20220;-65
2023/01/17 05:57:57;;;;;;;42.33;32.83;;;;;;;8.03;100.00;100105.06;2100826;28;20187;-65
2023/01/17 05:58:58;;;;;;;42.25;32.53;;;;;;;8.12;100.00;100119.06;2100852;28;20312;-65
2023/01/17 05:59:58;;;;;;;40.40;31.17;;;;;;;8.13;100.00;100115.09;2101308;28;20668;-65
2023/01/17 06:01:00;;;;;;;42.23;32.37;;;;;;;8.13;100.00;100119.84;2100373;28;20192;-65
2023/01/17 06:02:00;;;;;;;44.60;33.15;;;;;;;8.16;100.00;100121.75;2100704;28;20719;-65
2023/01/17 06:03:00;;;;;;;44.07;33.30;;;;;;;7.42;100.00;100014.97;2103555;28;20687;-65
2023/01/17 06:04:01;;;;;;;47.03;34.50;;;;;;;8.11;100.00;100113.97;2100520;28;20212;-65
2023/01/17 06:05:01;;;;;;;43.67;33.07;;;;;;;8.12;100.00;100118.28;2100275;28;20222;-65
2023/01/17 06:06:02;;;;;;;48.00;34.60;;;;;;;8.15;100.00;100126.47;2100782;28;20526;-65
2023/01/17 06:07:03;;;;;;;44.15;32.25;;;;;;;8.18;100.00;100124.84;2101045;28;20580;-65
2023/01/17 06:08:04;;;;;;;45.47;35.00;;;;;;;8.17;100.00;100121.31;2101469;28;20678;-65
2023/01/17 06:09:04;;;;;;;52.30;36.43;;;;;;;8.17;100.00;100120.53;2103381;28;20369;-65